createdAt,value
2023-05-08T00:00:30.030Z,16.25
2023-05-08T00:02:56.422Z,16.22
2023-05-08T00:05:22.827Z,16.36
2023-05-08T00:07:51.069Z,16.36
2023-05-08T00:10:17.507Z,16.30
2023-05-08T00:12:43.886Z,15.99
2023-05-08T00:15:10.670Z,16.20
2023-05-08T00:17:37.005Z,15.75
2023-05-08T00:20:03.648Z,15.39
2023-05-08T00:22:29.961Z,15.73
2023-05-08T00:24:56.270Z,15.89
2023-05-08T00:27:22.628Z,16.06
2023-05-08T00:29:48.942Z,16.05
2023-05-08T00:32:15.516Z,16.07
2023-05-08T00:34:41.978Z,15.88
2023-05-08T00:37:08.268Z,15.88
2023-05-08T00:39:34.572Z,15.55
2023-05-08T00:42:00.920Z,15.91
2023-05-08T00:44:27.337Z,16.09
2023-05-08T00:46:53.659Z,15.85
2023-05-08T00:49:19.960Z,15.18
2023-05-08T00:51:46.924Z,14.74
2023-05-08T00:54:13.555Z,14.68
2023-05-08T00:56:39.851Z,14.85
2023-05-08T00:59:07.961Z,14.69
2023-05-08T01:01:35.002Z,15.12
2023-05-08T01:04:01.340Z,15.30
2023-05-08T01:06:27.733Z,15.52
2023-05-08T01:08:54.031Z,15.80
2023-05-08T01:11:39.047Z,15.93
2023-05-08T01:14:13.360Z,15.85
2023-05-08T01:16:51.838Z,15.88
2023-05-08T01:19:27.075Z,15.88
2023-05-08T01:22:12.168Z,15.91
2023-05-08T01:24:57.512Z,15.73
2023-05-08T01:27:23.746Z,14.98
2023-05-08T01:30:14.445Z,14.66
2023-05-08T01:32:41.488Z,14.54
2023-05-08T01:35:07.887Z,14.32
2023-05-08T01:37:42.123Z,14.17
2023-05-08T01:40:13.408Z,14.09
2023-05-08T01:42:42.831Z,14.29
2023-05-08T01:45:11.147Z,14.36
2023-05-08T01:47:37.919Z,14.60
2023-05-08T01:50:13.767Z,14.74
2023-05-08T01:52:47.026Z,14.86
2023-05-08T01:55:15.270Z,15.20
2023-05-08T01:57:44.182Z,15.38
2023-05-08T02:00:10.874Z,15.38
2023-05-08T02:02:38.034Z,15.31
2023-05-08T02:05:04.786Z,14.90
2023-05-08T02:07:31.444Z,14.48
2023-05-08T02:09:57.735Z,14.75
2023-05-08T02:12:24.086Z,14.98
2023-05-08T02:14:50.564Z,15.11
2023-05-08T02:17:16.878Z,15.01
2023-05-08T02:19:43.167Z,14.77
2023-05-08T02:22:09.455Z,14.49
2023-05-08T02:24:35.875Z,14.25
2023-05-08T02:27:02.170Z,14.42
2023-05-08T02:29:28.708Z,14.62
2023-05-08T02:31:55.959Z,14.84
2023-05-08T02:34:23.260Z,14.92
2023-05-08T02:36:52.665Z,14.90
2023-05-08T02:39:19.159Z,14.87
2023-05-08T02:41:45.439Z,15.12
2023-05-08T02:44:12.244Z,15.13
2023-05-08T02:46:44.961Z,15.22
2023-05-08T02:49:16.964Z,15.44
2023-05-08T02:51:46.041Z,15.39
2023-05-08T02:54:22.933Z,15.31
2023-05-08T02:56:58.461Z,15.07
2023-05-08T02:59:54.259Z,15.43
2023-05-08T03:02:38.075Z,15.58
2023-05-08T03:05:07.907Z,15.41
2023-05-08T03:07:34.187Z,15.26
2023-05-08T03:10:03.055Z,15.26
2023-05-08T03:12:29.735Z,15.18
2023-05-08T03:15:28.559Z,15.16
2023-05-08T03:17:55.299Z,15.32
2023-05-08T03:20:21.936Z,15.44
2023-05-08T03:22:48.305Z,15.55
2023-05-08T03:25:15.263Z,15.68
2023-05-08T03:27:41.596Z,15.70
2023-05-08T03:30:09.288Z,15.82
2023-05-08T03:32:35.684Z,15.92
2023-05-08T03:35:02.240Z,15.90
2023-05-08T03:37:28.660Z,15.88
2023-05-08T03:39:58.003Z,15.70
2023-05-08T03:42:24.369Z,15.47
2023-05-08T03:44:51.289Z,15.54
2023-05-08T03:47:20.950Z,15.61
2023-05-08T03:49:47.394Z,15.61
2023-05-08T03:52:13.782Z,14.54
2023-05-08T03:54:40.064Z,14.74
2023-05-08T03:57:06.344Z,14.66
2023-05-08T03:59:51.697Z,14.83
2023-05-08T04:02:33.600Z,14.88
2023-05-08T04:05:10.724Z,14.88
2023-05-08T04:07:43.199Z,15.12
2023-05-08T04:10:11.417Z,15.39
2023-05-08T04:12:44.047Z,15.63
2023-05-08T04:15:11.374Z,15.78
2023-05-08T04:17:45.437Z,15.83
2023-05-08T04:20:13.722Z,15.86
2023-05-08T04:22:40.037Z,15.84
2023-05-08T04:25:06.773Z,15.92
2023-05-08T04:27:33.141Z,15.79
2023-05-08T04:29:59.428Z,15.59
2023-05-08T04:32:25.734Z,15.74
2023-05-08T04:34:52.751Z,15.71
2023-05-08T04:37:25.709Z,15.79
2023-05-08T04:39:52.221Z,15.74
2023-05-08T04:42:18.664Z,15.56
2023-05-08T04:44:44.978Z,15.02
2023-05-08T04:47:11.266Z,14.75
2023-05-08T04:49:37.566Z,15.09
2023-05-08T04:52:04.216Z,15.31
2023-05-08T04:54:30.515Z,15.24
2023-05-08T04:56:56.876Z,15.32
2023-05-08T04:59:24.914Z,15.31
2023-05-08T05:01:51.280Z,15.42
2023-05-08T05:04:17.635Z,15.49
2023-05-08T05:06:43.933Z,15.42
2023-05-08T05:09:10.387Z,15.68
2023-05-08T05:11:36.660Z,15.69
2023-05-08T05:14:02.960Z,15.68
2023-05-08T05:16:29.372Z,15.68
2023-05-08T05:18:55.915Z,15.64
2023-05-08T05:21:22.210Z,15.47
2023-05-08T05:23:48.569Z,15.29
2023-05-08T05:26:14.862Z,15.24
2023-05-08T05:28:41.134Z,15.17
2023-05-08T05:31:07.479Z,15.08
2023-05-08T05:33:33.803Z,15.18
2023-05-08T05:36:00.477Z,15.38
2023-05-08T05:38:26.838Z,15.48
2023-05-08T05:40:53.148Z,15.42
2023-05-08T05:43:19.562Z,15.35
2023-05-08T05:45:45.855Z,15.02
2023-05-08T05:48:12.248Z,13.95
2023-05-08T05:50:38.878Z,13.94
2023-05-08T05:53:05.481Z,14.02
2023-05-08T05:55:31.765Z,14.15
2023-05-08T05:57:58.068Z,14.67
2023-05-08T06:00:25.442Z,14.80
2023-05-08T06:02:51.809Z,14.52
2023-05-08T06:05:19.567Z,14.21
2023-05-08T06:07:46.323Z,14.51
2023-05-08T06:10:13.190Z,14.51
2023-05-08T06:12:39.657Z,14.75
2023-05-08T06:15:06.291Z,15.03
2023-05-08T06:17:32.656Z,14.82
2023-05-08T06:19:58.979Z,14.76
2023-05-08T06:22:25.721Z,14.63
2023-05-08T06:24:53.453Z,14.89
2023-05-08T06:27:20.769Z,14.53
2023-05-08T06:29:47.777Z,15.04
2023-05-08T06:32:14.069Z,14.57
2023-05-08T06:34:40.346Z,14.11
2023-05-08T06:37:06.709Z,14.06
2023-05-08T06:39:33.012Z,14.40
2023-05-08T06:41:59.304Z,14.55
2023-05-08T06:44:25.606Z,14.68
2023-05-08T06:46:52.016Z,14.41
2023-05-08T06:49:18.397Z,14.47
2023-05-08T06:51:44.688Z,14.44
2023-05-08T06:54:11.010Z,14.45
2023-05-08T06:56:37.349Z,14.45
2023-05-08T06:59:08.443Z,14.83
2023-05-08T07:01:35.762Z,15.12
2023-05-08T07:04:02.115Z,14.80
2023-05-08T07:06:28.523Z,15.26
2023-05-08T07:08:54.859Z,14.81
2023-05-08T07:11:21.282Z,15.07
2023-05-08T07:13:48.218Z,15.09
2023-05-08T07:16:15.282Z,14.92
2023-05-08T07:18:41.797Z,14.59
2023-05-08T07:21:08.618Z,14.38
2023-05-08T07:23:34.930Z,14.26
2023-05-08T07:26:01.216Z,14.50
2023-05-08T07:28:27.495Z,14.39
2023-05-08T07:30:53.809Z,14.72
2023-05-08T07:33:20.112Z,14.89
2023-05-08T07:35:46.399Z,14.65
2023-05-08T07:38:12.666Z,15.10
2023-05-08T07:40:38.951Z,14.82
2023-05-08T07:43:05.304Z,15.20
2023-05-08T07:45:31.609Z,14.75
2023-05-08T07:47:58.360Z,15.03
2023-05-08T07:50:25.183Z,14.53
2023-05-08T07:52:51.748Z,15.12
2023-05-08T07:55:18.162Z,15.14
2023-05-08T07:57:44.460Z,15.67
2023-05-08T08:00:11.533Z,15.40
2023-05-08T08:02:38.412Z,15.46
2023-05-08T08:05:05.514Z,15.55
2023-05-08T08:07:34.851Z,15.34
2023-05-08T08:10:01.417Z,15.31
2023-05-08T08:12:28.417Z,15.11
2023-05-08T08:14:54.814Z,14.81
2023-05-08T08:17:21.245Z,15.09
2023-05-08T08:19:47.607Z,15.38
2023-05-08T08:22:14.013Z,15.39
2023-05-08T08:24:40.364Z,15.10
2023-05-08T08:27:06.657Z,15.08
2023-05-08T08:29:32.956Z,14.86
2023-05-08T08:31:59.261Z,15.19
2023-05-08T08:34:25.560Z,14.66
2023-05-08T08:36:52.024Z,14.60
2023-05-08T08:39:18.330Z,14.62
2023-05-08T08:41:44.632Z,14.91
2023-05-08T08:44:10.949Z,14.69
2023-05-08T08:46:38.346Z,15.00
2023-05-08T08:49:05.213Z,15.31
2023-05-08T08:51:31.858Z,15.57
2023-05-08T08:54:11.600Z,15.67
2023-05-08T08:56:39.225Z,15.55
2023-05-08T08:59:05.756Z,15.72
2023-05-08T09:01:33.876Z,15.47
2023-05-08T09:04:00.714Z,15.26
2023-05-08T09:06:29.964Z,15.51
2023-05-08T09:08:57.406Z,15.57
2023-05-08T09:11:24.168Z,15.39
2023-05-08T09:13:50.721Z,15.71
2023-05-08T09:16:17.277Z,15.29
2023-05-08T09:18:43.599Z,15.49
2023-05-08T09:21:09.897Z,15.71
2023-05-08T09:23:36.705Z,15.51
2023-05-08T09:26:03.096Z,15.75
2023-05-08T09:28:29.407Z,15.75
2023-05-08T09:30:56.567Z,16.19
2023-05-08T09:33:23.846Z,15.82
2023-05-08T09:35:50.328Z,15.76
2023-05-08T09:38:31.570Z,16.38
2023-05-08T09:41:08.484Z,16.14
2023-05-08T09:43:34.791Z,16.17
2023-05-08T09:46:21.132Z,15.90
2023-05-08T09:48:47.850Z,16.14
2023-05-08T09:51:14.123Z,16.11
2023-05-08T09:53:40.560Z,16.11
2023-05-08T09:56:06.894Z,16.57
2023-05-08T09:58:43.036Z,16.27
2023-05-08T10:01:27.427Z,16.13
2023-05-08T10:03:53.785Z,16.44
2023-05-08T10:06:20.090Z,15.98
2023-05-08T10:08:46.910Z,16.30
2023-05-08T10:11:18.596Z,16.79
2023-05-08T10:13:45.031Z,16.60
2023-05-08T10:16:15.162Z,16.48
2023-05-08T10:18:43.038Z,16.38
2023-05-08T10:21:09.326Z,16.49
2023-05-08T10:23:35.669Z,16.36
2023-05-08T10:26:04.176Z,16.56
2023-05-08T10:28:49.968Z,16.38
2023-05-08T10:31:17.610Z,16.45
2023-05-08T10:33:44.849Z,16.58
2023-05-08T10:36:13.154Z,16.47
2023-05-08T10:38:39.660Z,16.67
2023-05-08T10:41:06.025Z,16.64
2023-05-08T10:43:32.342Z,16.85
2023-05-08T10:45:58.822Z,17.14
2023-05-08T10:48:31.283Z,16.85
2023-05-08T10:51:09.464Z,16.92
2023-05-08T10:53:39.949Z,16.78
2023-05-08T10:56:08.150Z,16.56
2023-05-08T10:58:35.797Z,16.83
2023-05-08T11:01:07.420Z,16.79
2023-05-08T11:03:47.178Z,17.08
2023-05-08T11:06:13.623Z,16.99
2023-05-08T11:08:49.647Z,17.12
2023-05-08T11:11:21.908Z,17.17
2023-05-08T11:13:49.939Z,17.40
2023-05-08T11:16:16.398Z,17.11
2023-05-08T11:19:15.451Z,17.15
2023-05-08T11:22:01.678Z,17.27
2023-05-08T11:24:34.738Z,17.68
2023-05-08T11:27:01.018Z,17.46
2023-05-08T11:29:27.335Z,17.43
2023-05-08T11:31:53.675Z,17.28
2023-05-08T11:34:38.698Z,16.99
2023-05-08T11:37:08.578Z,17.07
2023-05-08T11:39:34.871Z,17.47
2023-05-08T11:42:19.823Z,17.03
2023-05-08T11:44:46.124Z,17.18
2023-05-08T11:47:12.539Z,17.03
2023-05-08T11:49:39.299Z,17.33
2023-05-08T11:52:06.241Z,17.32
2023-05-08T11:54:32.674Z,17.46
2023-05-08T11:56:59.594Z,17.42
2023-05-08T11:59:26.620Z,17.67
2023-05-08T12:04:22.316Z,17.44
2023-05-08T12:06:50.872Z,17.38
2023-05-08T12:09:17.641Z,17.15
2023-05-08T12:11:45.188Z,17.18
2023-05-08T12:14:11.758Z,17.09
2023-05-08T12:16:41.030Z,17.14
2023-05-08T12:19:10.703Z,17.55
2023-05-08T12:21:37.020Z,17.25
2023-05-08T12:24:05.545Z,17.28
2023-05-08T12:26:34.988Z,17.03
2023-05-08T12:29:01.310Z,17.43
2023-05-08T12:31:27.611Z,17.59
2023-05-08T12:33:53.997Z,17.31
2023-05-08T12:36:20.290Z,17.64
2023-05-08T12:38:46.592Z,17.65
2023-05-08T12:41:13.402Z,17.60
2023-05-08T12:43:39.736Z,17.65
2023-05-08T12:46:06.112Z,17.50
2023-05-08T12:48:32.515Z,17.71
2023-05-08T12:51:02.814Z,18.12
2023-05-08T12:53:29.782Z,18.07
2023-05-08T12:55:57.167Z,17.97
2023-05-08T12:58:24.349Z,17.84
2023-05-08T13:00:53.637Z,18.14
2023-05-08T13:03:27.221Z,18.46
2023-05-08T13:05:54.086Z,18.42
2023-05-08T13:08:20.504Z,18.70
2023-05-08T13:10:47.646Z,18.62
2023-05-08T13:13:14.376Z,18.20
2023-05-08T13:15:40.721Z,18.71
2023-05-08T13:18:10.053Z,18.54
2023-05-08T13:20:36.468Z,19.02
2023-05-08T13:23:02.947Z,18.95
2023-05-08T13:25:29.774Z,18.67
2023-05-08T13:27:56.111Z,18.90
2023-05-08T13:30:22.385Z,18.96
2023-05-08T13:32:49.242Z,19.09
2023-05-08T13:35:15.822Z,18.70
2023-05-08T13:37:42.248Z,18.83
2023-05-08T13:40:08.727Z,18.79
2023-05-08T13:42:35.013Z,19.02
2023-05-08T13:45:01.772Z,18.82
2023-05-08T13:47:28.168Z,18.74
2023-05-08T13:49:54.556Z,18.94
2023-05-08T13:52:20.848Z,18.91
2023-05-08T13:54:47.158Z,18.77
2023-05-08T13:57:13.482Z,18.57
2023-05-08T13:59:39.771Z,18.43
2023-05-08T14:02:06.342Z,18.63
2023-05-08T14:04:32.813Z,18.96
2023-05-08T14:06:59.114Z,18.86
2023-05-08T14:09:25.385Z,18.78
2023-05-08T14:11:51.655Z,19.00
2023-05-08T14:14:17.946Z,18.71
2023-05-08T14:16:44.269Z,18.92
2023-05-08T14:19:10.552Z,19.24
2023-05-08T14:21:37.315Z,19.34
2023-05-08T14:24:03.673Z,19.24
2023-05-08T14:26:29.964Z,18.97
2023-05-08T14:28:56.295Z,19.00
2023-05-08T14:31:22.715Z,19.20
2023-05-08T14:33:49.108Z,19.36
2023-05-08T14:36:15.443Z,18.95
2023-05-08T14:38:41.727Z,18.74
2023-05-08T14:41:08.034Z,18.33
2023-05-08T14:43:34.326Z,18.39
2023-05-08T14:46:00.949Z,18.34
2023-05-08T14:48:27.558Z,18.55
2023-05-08T14:50:53.870Z,18.24
2023-05-08T14:53:20.473Z,18.41
2023-05-08T14:55:47.047Z,18.48
2023-05-08T14:58:13.527Z,18.63
2023-05-08T15:00:39.842Z,18.40
2023-05-08T15:03:06.313Z,18.25
2023-05-08T15:05:32.702Z,18.49
2023-05-08T15:07:59.023Z,18.72
2023-05-08T15:10:25.396Z,18.65
2023-05-08T15:12:51.728Z,18.47
2023-05-08T15:15:18.055Z,18.61
2023-05-08T15:17:44.368Z,18.52
2023-05-08T15:20:10.710Z,18.62
2023-05-08T15:22:37.079Z,18.56
2023-05-08T15:25:03.525Z,18.88
2023-05-08T15:27:29.872Z,19.23
2023-05-08T15:29:56.259Z,19.08
2023-05-08T15:32:22.575Z,19.00
2023-05-08T15:34:48.951Z,19.02
2023-05-08T15:37:15.297Z,18.97
2023-05-08T15:39:41.644Z,19.37
2023-05-08T15:42:07.923Z,19.24
2023-05-08T15:44:53.279Z,19.65
2023-05-08T15:47:22.550Z,19.80
2023-05-08T15:49:48.860Z,19.62
2023-05-08T15:52:19.563Z,19.78
2023-05-08T15:54:46.204Z,19.98
2023-05-08T15:57:12.483Z,20.22
2023-05-08T15:59:38.793Z,19.86
2023-05-08T16:02:05.325Z,20.03
2023-05-08T16:04:31.638Z,20.44
2023-05-08T16:07:00.997Z,19.95
2023-05-08T16:09:27.312Z,19.84
2023-05-08T16:11:53.630Z,19.44
2023-05-08T16:14:20.064Z,18.93
2023-05-08T16:16:46.358Z,18.99
2023-05-08T16:19:12.690Z,19.35
2023-05-08T16:21:38.991Z,19.44
2023-05-08T16:24:05.378Z,19.06
2023-05-08T16:26:31.672Z,18.94
2023-05-08T16:28:57.948Z,19.62
2023-05-08T16:31:24.247Z,19.62
2023-05-08T16:33:50.572Z,19.37
2023-05-08T16:36:16.960Z,19.16
2023-05-08T16:38:43.288Z,19.05
2023-05-08T16:41:10.039Z,19.48
2023-05-08T16:43:36.446Z,19.37
2023-05-08T16:46:05.262Z,19.15
2023-05-08T16:48:31.598Z,19.39
2023-05-08T16:50:57.868Z,19.50
2023-05-08T16:53:27.042Z,19.25
2023-05-08T16:55:53.952Z,19.45
2023-05-08T16:58:21.485Z,19.65
2023-05-08T17:00:47.792Z,19.91
2023-05-08T17:03:14.210Z,19.60
2023-05-08T17:05:40.926Z,19.63
2023-05-08T17:08:07.234Z,19.94
2023-05-08T17:10:33.526Z,20.04
2023-05-08T17:12:59.834Z,19.62
2023-05-08T17:15:26.147Z,19.23
2023-05-08T17:17:52.471Z,19.86
2023-05-08T17:20:18.739Z,19.93
2023-05-08T17:22:45.048Z,20.06
2023-05-08T17:25:11.322Z,19.86
2023-05-08T17:27:38.517Z,20.01
2023-05-08T17:30:05.844Z,19.81
2023-05-08T17:32:32.250Z,19.80
2023-05-08T17:34:58.568Z,19.98
2023-05-08T17:37:24.900Z,19.97
2023-05-08T17:39:51.199Z,19.63
2023-05-08T17:42:17.485Z,19.91
2023-05-08T17:44:43.759Z,20.10
2023-05-08T17:47:10.132Z,20.15
2023-05-08T17:49:36.440Z,20.20
2023-05-08T17:52:03.969Z,20.02
2023-05-08T17:54:30.339Z,19.94
2023-05-08T17:56:56.614Z,19.35
2023-05-08T17:59:22.930Z,19.68
2023-05-08T18:01:49.452Z,19.67
2023-05-08T18:04:16.202Z,19.77
2023-05-08T18:06:43.246Z,19.81
2023-05-08T18:09:09.523Z,19.75
2023-05-08T18:11:35.859Z,19.73
2023-05-08T18:14:02.201Z,19.68
2023-05-08T18:16:28.562Z,19.40
2023-05-08T18:18:54.841Z,19.15
2023-05-08T18:21:21.202Z,19.42
2023-05-08T18:23:47.554Z,19.55
2023-05-08T18:26:14.561Z,19.62
2023-05-08T18:28:40.882Z,19.64
2023-05-08T18:31:07.215Z,19.56
2023-05-08T18:33:33.532Z,19.40
2023-05-08T18:35:59.854Z,19.41
2023-05-08T18:38:26.152Z,19.50
2023-05-08T18:40:52.445Z,19.44
2023-05-08T18:43:18.726Z,19.33
2023-05-08T18:45:45.120Z,19.46
2023-05-08T18:48:11.490Z,18.93
2023-05-08T18:50:37.844Z,19.17
2023-05-08T18:53:04.187Z,19.31
2023-05-08T18:55:30.494Z,19.40
2023-05-08T18:57:56.822Z,19.32
2023-05-08T19:00:23.105Z,19.36
2023-05-08T19:02:49.464Z,19.38
2023-05-08T19:05:15.918Z,19.41
2023-05-08T19:07:42.784Z,19.41
2023-05-08T19:10:09.470Z,19.39
2023-05-08T19:12:35.771Z,19.34
2023-05-08T19:15:02.185Z,19.36
2023-05-08T19:17:28.576Z,19.31
2023-05-08T19:19:54.984Z,19.09
2023-05-08T19:22:21.339Z,19.16
2023-05-08T19:24:47.644Z,19.23
2023-05-08T19:27:13.924Z,19.15
2023-05-08T19:29:40.200Z,19.23
2023-05-08T19:32:06.570Z,18.73
2023-05-08T19:34:34.887Z,18.95
2023-05-08T19:37:01.274Z,18.65
2023-05-08T19:39:27.560Z,18.66
2023-05-08T19:41:53.835Z,18.66
2023-05-08T19:44:20.224Z,18.61
2023-05-08T19:46:46.698Z,18.44
2023-05-08T19:49:14.342Z,18.54
2023-05-08T19:51:40.653Z,18.43
2023-05-08T19:54:06.958Z,18.53
2023-05-08T19:56:33.356Z,18.34
2023-05-08T19:58:59.656Z,18.16
2023-05-08T20:01:26.039Z,17.93
2023-05-08T20:03:52.403Z,18.29
2023-05-08T20:06:18.817Z,18.54
2023-05-08T20:08:45.158Z,18.65
2023-05-08T20:11:11.801Z,18.74
2023-05-08T20:13:38.697Z,18.75
2023-05-08T20:16:05.181Z,18.80
2023-05-08T20:18:31.486Z,18.78
2023-05-08T20:20:57.870Z,18.80
2023-05-08T20:23:24.166Z,18.67
2023-05-08T20:25:50.511Z,18.69
2023-05-08T20:28:22.104Z,18.69
2023-05-08T20:30:48.654Z,18.75
2023-05-08T20:33:14.971Z,18.77
2023-05-08T20:35:41.286Z,18.71
2023-05-08T20:38:07.733Z,18.59
2023-05-08T20:40:34.037Z,18.48
2023-05-08T20:43:00.354Z,18.38
2023-05-08T20:45:26.703Z,18.31
2023-05-08T20:47:53.064Z,18.49
2023-05-08T20:50:19.398Z,18.51
2023-05-08T20:52:45.774Z,18.60
2023-05-08T20:55:12.307Z,18.60
2023-05-08T20:57:39.081Z,18.61
2023-05-08T21:00:05.703Z,18.64
2023-05-08T21:02:33.632Z,18.61
2023-05-08T21:05:00.082Z,18.63
2023-05-08T21:07:26.543Z,18.60
2023-05-08T21:09:52.812Z,18.59
2023-05-08T21:12:19.095Z,18.57
2023-05-08T21:14:45.412Z,18.52
2023-05-08T21:17:11.697Z,18.26
2023-05-08T21:19:38.221Z,18.40
2023-05-08T21:22:04.852Z,18.28
2023-05-08T21:24:31.344Z,18.41
2023-05-08T21:26:59.483Z,18.44
2023-05-08T21:29:25.861Z,18.46
2023-05-08T21:31:52.221Z,18.36
2023-05-08T21:34:21.233Z,18.13
2023-05-08T21:36:47.693Z,18.03
2023-05-08T21:39:14.740Z,18.27
2023-05-08T21:41:44.144Z,18.19
2023-05-08T21:44:13.344Z,18.13
2023-05-08T21:46:39.702Z,18.10
2023-05-08T21:49:06.079Z,18.19
2023-05-08T21:51:32.595Z,18.16
2023-05-08T21:53:59.297Z,18.03
2023-05-08T21:56:25.595Z,18.02
2023-05-08T21:58:51.960Z,18.04
2023-05-08T22:01:18.294Z,17.84
2023-05-08T22:03:44.705Z,17.70
2023-05-08T22:06:11.291Z,17.62
2023-05-08T22:08:37.585Z,17.58
2023-05-08T22:11:03.916Z,17.65
2023-05-08T22:13:30.586Z,17.61
2023-05-08T22:15:56.925Z,17.25
2023-05-08T22:18:23.294Z,16.87
2023-05-08T22:20:49.605Z,16.66
2023-05-08T22:23:15.895Z,16.57
2023-05-08T22:25:42.172Z,16.60
2023-05-08T22:28:08.514Z,16.61
2023-05-08T22:30:34.802Z,16.73
2023-05-08T22:33:01.348Z,16.68
2023-05-08T22:35:27.766Z,16.88
2023-05-08T22:37:54.128Z,16.88
2023-05-08T22:40:20.571Z,16.66
2023-05-08T22:42:46.956Z,16.81
2023-05-08T22:45:14.174Z,17.04
2023-05-08T22:47:40.965Z,16.76
2023-05-08T22:50:09.053Z,16.67
2023-05-08T22:52:35.946Z,16.86
2023-05-08T22:55:02.307Z,16.84
2023-05-08T22:57:28.597Z,16.81
2023-05-08T22:59:54.866Z,17.03
2023-05-08T23:02:21.518Z,17.32
2023-05-08T23:04:47.941Z,17.37
2023-05-08T23:07:14.326Z,17.52
2023-05-08T23:09:40.618Z,17.55
2023-05-08T23:12:07.145Z,17.57
2023-05-08T23:14:33.429Z,17.71
2023-05-08T23:16:59.806Z,17.75
2023-05-08T23:19:26.169Z,17.73
2023-05-08T23:21:52.499Z,17.71
2023-05-08T23:24:19.929Z,17.72
2023-05-08T23:26:48.360Z,17.61
2023-05-08T23:29:14.656Z,17.67
2023-05-08T23:31:41.085Z,17.31
2023-05-08T23:34:07.429Z,17.42
2023-05-08T23:36:33.754Z,17.48
2023-05-08T23:39:00.048Z,17.56
2023-05-08T23:41:26.336Z,17.59
2023-05-08T23:43:52.620Z,17.52
2023-05-08T23:46:18.917Z,17.41
2023-05-08T23:48:45.245Z,17.34
2023-05-08T23:51:11.519Z,17.16
2023-05-08T23:53:37.799Z,16.91
2023-05-08T23:56:04.319Z,16.82
2023-05-08T23:58:30.591Z,16.76
